Terminal Aerodrome Forecast
Issued by NWS Mt. Holly, NJ

Home | Current Version | Previous Version | Text Only | Print | Product List | Glossary On
Versions: 1 2 3 4 5 6 7 8 9 10 11 12 13 14 15 16 17 18 19 20 21 22 23 24 25 26 27
000
FTUS41 KPHI 052326
TAFTTN
TAF
KTTN 052326Z 0600/0624 05008KT P6SM OVC025
      TEMPO 0601/0604 OVC015
     FM060400 04008KT P6SM OVC015
     FM060800 04008KT 4SM -RA BR OVC015
     FM061200 05010KT 3SM RA BR OVC009=

USA.gov is the U.S. government's official web portal to all federal, state and local government web resources and services.